sensor_id;sensor_type;location;lat;lon;timestamp;pressure;altitude;pressure_sealevel;temperature
80496;BMP180;69819;48.798;11.770;2024-03-06T00:02:11;97390.00;;;10.70
80496;BMP180;69819;48.798;11.770;2024-03-06T00:04:37;97399.00;;;10.80
80496;BMP180;69819;48.798;11.770;2024-03-06T00:07:04;97371.00;;;10.80
80496;BMP180;69819;48.798;11.770;2024-03-06T00:09:30;97388.00;;;10.80
80496;BMP180;69819;48.798;11.770;2024-03-06T00:11:57;97398.00;;;10.90
80496;BMP180;69819;48.798;11.770;2024-03-06T00:14:23;97365.00;;;10.90
80496;BMP180;69819;48.798;11.770;2024-03-06T00:16:50;97375.00;;;10.90
80496;BMP180;69819;48.798;11.770;2024-03-06T00:19:19;97405.00;;;10.90
80496;BMP180;69819;48.798;11.770;2024-03-06T00:21:46;97386.00;;;10.90
80496;BMP180;69819;48.798;11.770;2024-03-06T00:24:13;97399.00;;;11.00
80496;BMP180;69819;48.798;11.770;2024-03-06T00:26:44;97402.00;;;10.90
80496;BMP180;69819;48.798;11.770;2024-03-06T00:29:10;97335.00;;;11.00
80496;BMP180;69819;48.798;11.770;2024-03-06T00:31:38;97379.00;;;10.90
80496;BMP180;69819;48.798;11.770;2024-03-06T00:34:07;97384.00;;;10.90
80496;BMP180;69819;48.798;11.770;2024-03-06T00:36:33;97367.00;;;10.90
80496;BMP180;69819;48.798;11.770;2024-03-06T00:38:59;97401.00;;;10.80
80496;BMP180;69819;48.798;11.770;2024-03-06T00:41:25;97387.00;;;10.80
80496;BMP180;69819;48.798;11.770;2024-03-06T00:43:50;97395.00;;;10.70
80496;BMP180;69819;48.798;11.770;2024-03-06T00:46:16;97387.00;;;10.70
80496;BMP180;69819;48.798;11.770;2024-03-06T00:48:42;97399.00;;;10.70
80496;BMP180;69819;48.798;11.770;2024-03-06T00:51:08;97415.00;;;10.70
80496;BMP180;69819;48.798;11.770;2024-03-06T00:53:36;97390.00;;;10.60
80496;BMP180;69819;48.798;11.770;2024-03-06T00:56:03;97402.00;;;10.70
80496;BMP180;69819;48.798;11.770;2024-03-06T00:58:28;97414.00;;;10.70
80496;BMP180;69819;48.798;11.770;2024-03-06T01:00:54;97417.00;;;10.60
80496;BMP180;69819;48.798;11.770;2024-03-06T01:03:20;97381.00;;;10.60
80496;BMP180;69819;48.798;11.770;2024-03-06T01:05:46;97399.00;;;10.60
80496;BMP180;69819;48.798;11.770;2024-03-06T01:08:12;97397.00;;;10.70
80496;BMP180;69819;48.798;11.770;2024-03-06T01:10:38;97377.00;;;10.70
80496;BMP180;69819;48.798;11.770;2024-03-06T01:13:04;97406.00;;;10.70
80496;BMP180;69819;48.798;11.770;2024-03-06T01:15:30;97382.00;;;10.70
80496;BMP180;69819;48.798;11.770;2024-03-06T01:17:56;97372.00;;;10.70
80496;BMP180;69819;48.798;11.770;2024-03-06T01:20:23;97382.00;;;10.60
80496;BMP180;69819;48.798;11.770;2024-03-06T01:22:49;97366.00;;;10.60
80496;BMP180;69819;48.798;11.770;2024-03-06T01:25:14;97367.00;;;10.60
80496;BMP180;69819;48.798;11.770;2024-03-06T01:27:40;97354.00;;;10.50
80496;BMP180;69819;48.798;11.770;2024-03-06T01:30:07;97398.00;;;10.50
80496;BMP180;69819;48.798;11.770;2024-03-06T01:32:33;97388.00;;;10.40
80496;BMP180;69819;48.798;11.770;2024-03-06T01:34:59;97382.00;;;10.40
80496;BMP180;69819;48.798;11.770;2024-03-06T01:37:25;97392.00;;;10.30
80496;BMP180;69819;48.798;11.770;2024-03-06T01:39:50;97401.00;;;10.30
80496;BMP180;69819;48.798;11.770;2024-03-06T01:42:17;97398.00;;;10.30
80496;BMP180;69819;48.798;11.770;2024-03-06T01:44:44;97391.00;;;10.30
80496;BMP180;69819;48.798;11.770;2024-03-06T01:47:09;97381.00;;;10.30
80496;BMP180;69819;48.798;11.770;2024-03-06T01:49:35;97400.00;;;10.30
80496;BMP180;69819;48.798;11.770;2024-03-06T01:52:02;97399.00;;;10.30
80496;BMP180;69819;48.798;11.770;2024-03-06T01:54:30;97407.00;;;10.30
80496;BMP180;69819;48.798;11.770;2024-03-06T01:56:59;97383.00;;;10.30
80496;BMP180;69819;48.798;11.770;2024-03-06T01:59:26;97350.00;;;10.30
80496;BMP180;69819;48.798;11.770;2024-03-06T02:01:55;97384.00;;;10.20
80496;BMP180;69819;48.798;11.770;2024-03-06T02:04:22;97361.00;;;10.20
80496;BMP180;69819;48.798;11.770;2024-03-06T02:06:49;97393.00;;;10.20
80496;BMP180;69819;48.798;11.770;2024-03-06T02:09:15;97378.00;;;10.20
80496;BMP180;69819;48.798;11.770;2024-03-06T02:11:41;97372.00;;;10.10
80496;BMP180;69819;48.798;11.770;2024-03-06T02:14:07;97392.00;;;10.10
80496;BMP180;69819;48.798;11.770;2024-03-06T02:16:36;97395.00;;;10.10
80496;BMP180;69819;48.798;11.770;2024-03-06T02:19:04;97373.00;;;10.10
80496;BMP180;69819;48.798;11.770;2024-03-06T02:21:30;97362.00;;;10.00
80496;BMP180;69819;48.798;11.770;2024-03-06T02:23:56;97319.00;;;10.00
80496;BMP180;69819;48.798;11.770;2024-03-06T02:26:22;97351.00;;;9.90
80496;BMP180;69819;48.798;11.770;2024-03-06T02:28:54;97389.00;;;9.90
80496;BMP180;69819;48.798;11.770;2024-03-06T02:31:21;97348.00;;;9.90
80496;BMP180;69819;48.798;11.770;2024-03-06T02:33:48;97378.00;;;9.90
80496;BMP180;69819;48.798;11.770;2024-03-06T02:36:18;97384.00;;;9.90
80496;BMP180;69819;48.798;11.770;2024-03-06T02:38:45;97362.00;;;9.90
80496;BMP180;69819;48.798;11.770;2024-03-06T02:41:12;97356.00;;;10.00
80496;BMP180;69819;48.798;11.770;2024-03-06T02:43:39;97354.00;;;10.00
80496;BMP180;69819;48.798;11.770;2024-03-06T02:46:05;97387.00;;;10.00
80496;BMP180;69819;48.798;11.770;2024-03-06T02:48:31;97372.00;;;10.00
80496;BMP180;69819;48.798;11.770;2024-03-06T02:50:57;97374.00;;;10.00
80496;BMP180;69819;48.798;11.770;2024-03-06T02:53:23;97365.00;;;10.10
80496;BMP180;69819;48.798;11.770;2024-03-06T02:55:51;97371.00;;;10.10
80496;BMP180;69819;48.798;11.770;2024-03-06T02:58:16;97359.00;;;10.10
80496;BMP180;69819;48.798;11.770;2024-03-06T03:00:43;97347.00;;;10.10
80496;BMP180;69819;48.798;11.770;2024-03-06T03:03:10;97354.00;;;10.10
80496;BMP180;69819;48.798;11.770;2024-03-06T03:05:38;97364.00;;;10.10
80496;BMP180;69819;48.798;11.770;2024-03-06T03:08:05;97374.00;;;10.00
80496;BMP180;69819;48.798;11.770;2024-03-06T03:10:32;97371.00;;;9.90
80496;BMP180;69819;48.798;11.770;2024-03-06T03:12:59;97346.00;;;10.00
80496;BMP180;69819;48.798;11.770;2024-03-06T03:15:25;97349.00;;;9.90
80496;BMP180;69819;48.798;11.770;2024-03-06T03:17:51;97375.00;;;9.90
80496;BMP180;69819;48.798;11.770;2024-03-06T03:20:17;97380.00;;;9.90
80496;BMP180;69819;48.798;11.770;2024-03-06T03:22:43;97337.00;;;9.80
80496;BMP180;69819;48.798;11.770;2024-03-06T03:25:13;97355.00;;;9.80
80496;BMP180;69819;48.798;11.770;2024-03-06T03:27:40;97340.00;;;9.80
80496;BMP180;69819;48.798;11.770;2024-03-06T03:30:10;97361.00;;;9.80
80496;BMP180;69819;48.798;11.770;2024-03-06T03:32:37;97330.00;;;9.80
80496;BMP180;69819;48.798;11.770;2024-03-06T03:35:07;97354.00;;;9.70
80496;BMP180;69819;48.798;11.770;2024-03-06T03:37:33;97335.00;;;9.70
80496;BMP180;69819;48.798;11.770;2024-03-06T03:39:59;97353.00;;;9.70
80496;BMP180;69819;48.798;11.770;2024-03-06T03:42:25;97367.00;;;9.70
80496;BMP180;69819;48.798;11.770;2024-03-06T03:44:51;97336.00;;;9.70
80496;BMP180;69819;48.798;11.770;2024-03-06T03:47:17;97366.00;;;9.60
80496;BMP180;69819;48.798;11.770;2024-03-06T03:49:43;97366.00;;;9.60
80496;BMP180;69819;48.798;11.770;2024-03-06T03:52:09;97346.00;;;9.60
80496;BMP180;69819;48.798;11.770;2024-03-06T03:54:34;97346.00;;;9.60
80496;BMP180;69819;48.798;11.770;2024-03-06T03:57:01;97379.00;;;9.50
80496;BMP180;69819;48.798;11.770;2024-03-06T03:59:27;97346.00;;;9.50
80496;BMP180;69819;48.798;11.770;2024-03-06T04:01:53;97345.00;;;9.50
80496;BMP180;69819;48.798;11.770;2024-03-06T04:04:19;97380.00;;;9.50
80496;BMP180;69819;48.798;11.770;2024-03-06T04:06:44;97379.00;;;9.50
80496;BMP180;69819;48.798;11.770;2024-03-06T04:09:11;97384.00;;;9.50
80496;BMP180;69819;48.798;11.770;2024-03-06T04:11:37;97379.00;;;9.60
80496;BMP180;69819;48.798;11.770;2024-03-06T04:14:04;97366.00;;;9.60
80496;BMP180;69819;48.798;11.770;2024-03-06T04:16:32;97359.00;;;9.60
80496;BMP180;69819;48.798;11.770;2024-03-06T04:18:58;97392.00;;;9.60
80496;BMP180;69819;48.798;11.770;2024-03-06T04:21:24;97384.00;;;9.60
80496;BMP180;69819;48.798;11.770;2024-03-06T04:23:49;97369.00;;;9.60
80496;BMP180;69819;48.798;11.770;2024-03-06T04:26:15;97403.00;;;9.70
80496;BMP180;69819;48.798;11.770;2024-03-06T04:28:43;97389.00;;;9.70
80496;BMP180;69819;48.798;11.770;2024-03-06T04:31:09;97395.00;;;9.80
80496;BMP180;69819;48.798;11.770;2024-03-06T04:33:36;97408.00;;;9.80
80496;BMP180;69819;48.798;11.770;2024-03-06T04:36:03;97409.00;;;9.80
80496;BMP180;69819;48.798;11.770;2024-03-06T04:38:31;97411.00;;;9.80
80496;BMP180;69819;48.798;11.770;2024-03-06T04:40:57;97383.00;;;9.80
80496;BMP180;69819;48.798;11.770;2024-03-06T04:43:24;97410.00;;;9.80
80496;BMP180;69819;48.798;11.770;2024-03-06T04:45:49;97388.00;;;9.70
80496;BMP180;69819;48.798;11.770;2024-03-06T04:48:15;97413.00;;;9.70
80496;BMP180;69819;48.798;11.770;2024-03-06T04:50:41;97408.00;;;9.70
80496;BMP180;69819;48.798;11.770;2024-03-06T04:53:07;97427.00;;;9.70
80496;BMP180;69819;48.798;11.770;2024-03-06T04:55:33;97405.00;;;9.70
80496;BMP180;69819;48.798;11.770;2024-03-06T04:58:03;97417.00;;;9.70
80496;BMP180;69819;48.798;11.770;2024-03-06T05:00:29;97415.00;;;9.70
80496;BMP180;69819;48.798;11.770;2024-03-06T05:02:55;97428.00;;;9.70
80496;BMP180;69819;48.798;11.770;2024-03-06T05:05:22;97430.00;;;9.70
80496;BMP180;69819;48.798;11.770;2024-03-06T05:07:51;97437.00;;;9.70
80496;BMP180;69819;48.798;11.770;2024-03-06T05:10:17;97427.00;;;9.70
80496;BMP180;69819;48.798;11.770;2024-03-06T05:12:43;97438.00;;;9.70
80496;BMP180;69819;48.798;11.770;2024-03-06T05:15:10;97430.00;;;9.70
80496;BMP180;69819;48.798;11.770;2024-03-06T05:17:36;97396.00;;;9.70
80496;BMP180;69819;48.798;11.770;2024-03-06T05:20:03;97428.00;;;9.70
80496;BMP180;69819;48.798;11.770;2024-03-06T05:22:29;97426.00;;;9.70
80496;BMP180;69819;48.798;11.770;2024-03-06T05:24:55;97429.00;;;9.70
80496;BMP180;69819;48.798;11.770;2024-03-06T05:27:22;97417.00;;;9.70
80496;BMP180;69819;48.798;11.770;2024-03-06T05:29:47;97423.00;;;9.80
80496;BMP180;69819;48.798;11.770;2024-03-06T05:32:13;97444.00;;;9.80
80496;BMP180;69819;48.798;11.770;2024-03-06T05:34:39;97426.00;;;9.80
80496;BMP180;69819;48.798;11.770;2024-03-06T05:37:05;97457.00;;;9.80
80496;BMP180;69819;48.798;11.770;2024-03-06T05:39:32;97463.00;;;9.80
80496;BMP180;69819;48.798;11.770;2024-03-06T05:42:02;97472.00;;;9.80
80496;BMP180;69819;48.798;11.770;2024-03-06T05:44:30;97425.00;;;9.80
80496;BMP180;69819;48.798;11.770;2024-03-06T05:47:00;97439.00;;;9.90
80496;BMP180;69819;48.798;11.770;2024-03-06T05:49:27;97434.00;;;9.90
80496;BMP180;69819;48.798;11.770;2024-03-06T05:51:53;97467.00;;;9.90
80496;BMP180;69819;48.798;11.770;2024-03-06T05:54:22;97472.00;;;9.90
80496;BMP180;69819;48.798;11.770;2024-03-06T05:56:52;97465.00;;;9.90
80496;BMP180;69819;48.798;11.770;2024-03-06T05:59:19;97454.00;;;9.90
80496;BMP180;69819;48.798;11.770;2024-03-06T06:01:48;97472.00;;;9.90
80496;BMP180;69819;48.798;11.770;2024-03-06T06:04:14;97487.00;;;9.90
80496;BMP180;69819;48.798;11.770;2024-03-06T06:06:40;97459.00;;;10.00
80496;BMP180;69819;48.798;11.770;2024-03-06T06:09:06;97475.00;;;10.00
80496;BMP180;69819;48.798;11.770;2024-03-06T06:11:33;97473.00;;;10.00
80496;BMP180;69819;48.798;11.770;2024-03-06T06:13:59;97493.00;;;10.00
80496;BMP180;69819;48.798;11.770;2024-03-06T06:16:25;97474.00;;;10.00
80496;BMP180;69819;48.798;11.770;2024-03-06T06:18:51;97457.00;;;10.00
80496;BMP180;69819;48.798;11.770;2024-03-06T06:21:18;97484.00;;;10.00
80496;BMP180;69819;48.798;11.770;2024-03-06T06:23:44;97463.00;;;9.90
80496;BMP180;69819;48.798;11.770;2024-03-06T06:26:10;97493.00;;;9.90
80496;BMP180;69819;48.798;11.770;2024-03-06T06:28:36;97481.00;;;9.90
80496;BMP180;69819;48.798;11.770;2024-03-06T06:31:04;97465.00;;;9.80
80496;BMP180;69819;48.798;11.770;2024-03-06T06:33:30;97478.00;;;9.80
80496;BMP180;69819;48.798;11.770;2024-03-06T06:35:56;97477.00;;;9.80
80496;BMP180;69819;48.798;11.770;2024-03-06T06:38:22;97484.00;;;9.80
80496;BMP180;69819;48.798;11.770;2024-03-06T06:40:48;97478.00;;;9.70
80496;BMP180;69819;48.798;11.770;2024-03-06T06:43:14;97509.00;;;9.80
80496;BMP180;69819;48.798;11.770;2024-03-06T06:45:41;97509.00;;;9.70
80496;BMP180;69819;48.798;11.770;2024-03-06T06:48:07;97502.00;;;9.70
80496;BMP180;69819;48.798;11.770;2024-03-06T06:50:35;97480.00;;;9.70
80496;BMP180;69819;48.798;11.770;2024-03-06T06:53:00;97493.00;;;9.70
80496;BMP180;69819;48.798;11.770;2024-03-06T06:55:26;97491.00;;;9.60
80496;BMP180;69819;48.798;11.770;2024-03-06T06:57:52;97514.00;;;9.80
80496;BMP180;69819;48.798;11.770;2024-03-06T07:00:19;97521.00;;;9.80
80496;BMP180;69819;48.798;11.770;2024-03-06T07:02:48;97499.00;;;9.90
80496;BMP180;69819;48.798;11.770;2024-03-06T07:05:15;97518.00;;;10.00
80496;BMP180;69819;48.798;11.770;2024-03-06T07:07:40;97518.00;;;10.10
80496;BMP180;69819;48.798;11.770;2024-03-06T07:10:07;97526.00;;;10.20
80496;BMP180;69819;48.798;11.770;2024-03-06T07:12:35;97538.00;;;10.30
80496;BMP180;69819;48.798;11.770;2024-03-06T07:15:02;97523.00;;;10.40
80496;BMP180;69819;48.798;11.770;2024-03-06T07:17:28;97553.00;;;10.50
80496;BMP180;69819;48.798;11.770;2024-03-06T07:19:54;97522.00;;;10.60
80496;BMP180;69819;48.798;11.770;2024-03-06T07:22:20;97551.00;;;10.70
80496;BMP180;69819;48.798;11.770;2024-03-06T07:24:46;97524.00;;;10.80
80496;BMP180;69819;48.798;11.770;2024-03-06T07:27:12;97533.00;;;11.00
80496;BMP180;69819;48.798;11.770;2024-03-06T07:29:38;97541.00;;;11.10
80496;BMP180;69819;48.798;11.770;2024-03-06T07:32:04;97520.00;;;11.30
80496;BMP180;69819;48.798;11.770;2024-03-06T07:34:33;97527.00;;;11.40
80496;BMP180;69819;48.798;11.770;2024-03-06T07:37:00;97558.00;;;11.50
80496;BMP180;69819;48.798;11.770;2024-03-06T07:39:27;97533.00;;;11.70
80496;BMP180;69819;48.798;11.770;2024-03-06T07:41:53;97548.00;;;11.80
80496;BMP180;69819;48.798;11.770;2024-03-06T07:44:20;97558.00;;;12.00
80496;BMP180;69819;48.798;11.770;2024-03-06T07:46:46;97551.00;;;12.20
80496;BMP180;69819;48.798;11.770;2024-03-06T07:49:12;97514.00;;;12.30
80496;BMP180;69819;48.798;11.770;2024-03-06T07:51:38;97544.00;;;12.40
80496;BMP180;69819;48.798;11.770;2024-03-06T07:54:04;97539.00;;;12.60
80496;BMP180;69819;48.798;11.770;2024-03-06T07:56:30;97557.00;;;12.90
80496;BMP180;69819;48.798;11.770;2024-03-06T07:58:56;97581.00;;;13.20
80496;BMP180;69819;48.798;11.770;2024-03-06T08:01:22;97560.00;;;13.40
80496;BMP180;69819;48.798;11.770;2024-03-06T08:03:49;97561.00;;;13.50
80496;BMP180;69819;48.798;11.770;2024-03-06T08:06:14;97556.00;;;13.60
80496;BMP180;69819;48.798;11.770;2024-03-06T08:08:43;97577.00;;;13.70
80496;BMP180;69819;48.798;11.770;2024-03-06T08:11:13;97590.00;;;13.70
80496;BMP180;69819;48.798;11.770;2024-03-06T08:13:39;97596.00;;;13.70
80496;BMP180;69819;48.798;11.770;2024-03-06T08:16:06;97598.00;;;13.70
80496;BMP180;69819;48.798;11.770;2024-03-06T08:18:34;97591.00;;;13.70
80496;BMP180;69819;48.798;11.770;2024-03-06T08:21:01;97585.00;;;13.70
80496;BMP180;69819;48.798;11.770;2024-03-06T08:23:27;97603.00;;;13.70
80496;BMP180;69819;48.798;11.770;2024-03-06T08:25:53;97596.00;;;13.70
80496;BMP180;69819;48.798;11.770;2024-03-06T08:28:19;97587.00;;;13.80
80496;BMP180;69819;48.798;11.770;2024-03-06T08:30:45;97611.00;;;13.80
80496;BMP180;69819;48.798;11.770;2024-03-06T08:33:11;97604.00;;;13.80
80496;BMP180;69819;48.798;11.770;2024-03-06T08:35:37;97603.00;;;13.90
80496;BMP180;69819;48.798;11.770;2024-03-06T08:38:04;97610.00;;;13.90
80496;BMP180;69819;48.798;11.770;2024-03-06T08:40:30;97586.00;;;14.00
80496;BMP180;69819;48.798;11.770;2024-03-06T08:42:56;97582.00;;;14.10
80496;BMP180;69819;48.798;11.770;2024-03-06T08:45:22;97587.00;;;14.20
80496;BMP180;69819;48.798;11.770;2024-03-06T08:47:49;97607.00;;;14.20
80496;BMP180;69819;48.798;11.770;2024-03-06T08:50:16;97619.00;;;14.30
80496;BMP180;69819;48.798;11.770;2024-03-06T08:52:42;97626.00;;;14.40
80496;BMP180;69819;48.798;11.770;2024-03-06T08:55:09;97626.00;;;14.40
80496;BMP180;69819;48.798;11.770;2024-03-06T08:57:36;97582.00;;;14.40
80496;BMP180;69819;48.798;11.770;2024-03-06T09:00:07;97603.00;;;14.40
80496;BMP180;69819;48.798;11.770;2024-03-06T09:02:37;97620.00;;;14.30
80496;BMP180;69819;48.798;11.770;2024-03-06T09:05:10;97636.00;;;14.30
80496;BMP180;69819;48.798;11.770;2024-03-06T09:07:41;97608.00;;;14.30
80496;BMP180;69819;48.798;11.770;2024-03-06T09:10:08;97620.00;;;14.30
80496;BMP180;69819;48.798;11.770;2024-03-06T09:12:34;97634.00;;;14.30
80496;BMP180;69819;48.798;11.770;2024-03-06T09:15:01;97643.00;;;14.30
80496;BMP180;69819;48.798;11.770;2024-03-06T09:17:27;97632.00;;;14.30
80496;BMP180;69819;48.798;11.770;2024-03-06T09:19:53;97639.00;;;14.30
80496;BMP180;69819;48.798;11.770;2024-03-06T09:22:19;97646.00;;;14.30
80496;BMP180;69819;48.798;11.770;2024-03-06T09:24:45;97638.00;;;14.30
80496;BMP180;69819;48.798;11.770;2024-03-06T09:27:12;97633.00;;;14.30
80496;BMP180;69819;48.798;11.770;2024-03-06T09:29:39;97649.00;;;14.40
80496;BMP180;69819;48.798;11.770;2024-03-06T09:32:06;97652.00;;;14.40
80496;BMP180;69819;48.798;11.770;2024-03-06T09:34:32;97654.00;;;14.40
80496;BMP180;69819;48.798;11.770;2024-03-06T09:36:57;97635.00;;;14.40
80496;BMP180;69819;48.798;11.770;2024-03-06T09:39:23;97651.00;;;14.50
80496;BMP180;69819;48.798;11.770;2024-03-06T09:41:53;97658.00;;;14.50
80496;BMP180;69819;48.798;11.770;2024-03-06T09:44:21;97668.00;;;14.60
80496;BMP180;69819;48.798;11.770;2024-03-06T09:46:49;97652.00;;;14.60
80496;BMP180;69819;48.798;11.770;2024-03-06T09:49:19;97642.00;;;14.60
80496;BMP180;69819;48.798;11.770;2024-03-06T09:51:47;97662.00;;;14.70
80496;BMP180;69819;48.798;11.770;2024-03-06T09:54:16;97664.00;;;14.80
80496;BMP180;69819;48.798;11.770;2024-03-06T09:56:43;97642.00;;;14.90
80496;BMP180;69819;48.798;11.770;2024-03-06T09:59:11;97646.00;;;15.00
80496;BMP180;69819;48.798;11.770;2024-03-06T10:04:26;97650.00;;;15.20
80496;BMP180;69819;48.798;11.770;2024-03-06T10:06:59;97664.00;;;15.30
80496;BMP180;69819;48.798;11.770;2024-03-06T10:09:27;97631.00;;;15.30
80496;BMP180;69819;48.798;11.770;2024-03-06T10:11:53;97656.00;;;15.40
80496;BMP180;69819;48.798;11.770;2024-03-06T10:14:21;97657.00;;;15.40
80496;BMP180;69819;48.798;11.770;2024-03-06T10:17:05;97650.00;;;15.30
80496;BMP180;69819;48.798;11.770;2024-03-06T10:19:32;97664.00;;;15.40
80496;BMP180;69819;48.798;11.770;2024-03-06T10:21:58;97659.00;;;15.50
80496;BMP180;69819;48.798;11.770;2024-03-06T10:24:29;97644.00;;;15.70
80496;BMP180;69819;48.798;11.770;2024-03-06T10:26:56;97661.00;;;15.80
80496;BMP180;69819;48.798;11.770;2024-03-06T10:29:26;97643.00;;;15.90
80496;BMP180;69819;48.798;11.770;2024-03-06T10:31:55;97661.00;;;16.10
80496;BMP180;69819;48.798;11.770;2024-03-06T10:34:22;97676.00;;;16.20
80496;BMP180;69819;48.798;11.770;2024-03-06T10:36:59;97671.00;;;16.30
80496;BMP180;69819;48.798;11.770;2024-03-06T10:39:26;97658.00;;;16.50
80496;BMP180;69819;48.798;11.770;2024-03-06T10:41:57;97652.00;;;16.50
80496;BMP180;69819;48.798;11.770;2024-03-06T10:44:26;97663.00;;;16.60
80496;BMP180;69819;48.798;11.770;2024-03-06T10:47:03;97669.00;;;16.60
80496;BMP180;69819;48.798;11.770;2024-03-06T10:49:31;97635.00;;;16.70
80496;BMP180;69819;48.798;11.770;2024-03-06T10:54:30;97654.00;;;16.80
80496;BMP180;69819;48.798;11.770;2024-03-06T10:56:56;97673.00;;;16.80
80496;BMP180;69819;48.798;11.770;2024-03-06T10:59:27;97667.00;;;16.80
80496;BMP180;69819;48.798;11.770;2024-03-06T11:01:57;97655.00;;;16.80
80496;BMP180;69819;48.798;11.770;2024-03-06T11:04:27;97643.00;;;16.80
80496;BMP180;69819;48.798;11.770;2024-03-06T11:06:56;97671.00;;;16.70
80496;BMP180;69819;48.798;11.770;2024-03-06T11:09:22;97665.00;;;16.70
80496;BMP180;69819;48.798;11.770;2024-03-06T11:11:53;97674.00;;;16.70
80496;BMP180;69819;48.798;11.770;2024-03-06T11:14:23;97654.00;;;16.70
80496;BMP180;69819;48.798;11.770;2024-03-06T11:17:20;97627.00;;;16.70
80496;BMP180;69819;48.798;11.770;2024-03-06T11:31:10;97671.00;;;17.00
80496;BMP180;69819;48.798;11.770;2024-03-06T11:33:41;97674.00;;;16.90
80496;BMP180;69819;48.798;11.770;2024-03-06T11:36:26;97666.00;;;16.80
80496;BMP180;69819;48.798;11.770;2024-03-06T11:39:07;97663.00;;;16.70
80496;BMP180;69819;48.798;11.770;2024-03-06T11:41:53;97663.00;;;16.70
80496;BMP180;69819;48.798;11.770;2024-03-06T11:44:21;97655.00;;;16.70
80496;BMP180;69819;48.798;11.770;2024-03-06T11:49:39;97664.00;;;16.50
80496;BMP180;69819;48.798;11.770;2024-03-06T11:52:09;97649.00;;;16.30
80496;BMP180;69819;48.798;11.770;2024-03-06T11:54:36;97659.00;;;16.20
80496;BMP180;69819;48.798;11.770;2024-03-06T11:57:05;97668.00;;;16.10
80496;BMP180;69819;48.798;11.770;2024-03-06T11:59:36;97669.00;;;16.00
80496;BMP180;69819;48.798;11.770;2024-03-06T12:02:05;97672.00;;;16.00
80496;BMP180;69819;48.798;11.770;2024-03-06T12:04:32;97662.00;;;15.90
80496;BMP180;69819;48.798;11.770;2024-03-06T12:07:05;97669.00;;;15.90
80496;BMP180;69819;48.798;11.770;2024-03-06T12:09:36;97654.00;;;15.90
80496;BMP180;69819;48.798;11.770;2024-03-06T12:12:03;97671.00;;;16.00
80496;BMP180;69819;48.798;11.770;2024-03-06T12:14:29;97668.00;;;16.00
80496;BMP180;69819;48.798;11.770;2024-03-06T12:16:58;97668.00;;;16.10
80496;BMP180;69819;48.798;11.770;2024-03-06T12:19:26;97641.00;;;16.10
80496;BMP180;69819;48.798;11.770;2024-03-06T12:21:59;97656.00;;;16.20
80496;BMP180;69819;48.798;11.770;2024-03-06T12:24:25;97661.00;;;16.30
80496;BMP180;69819;48.798;11.770;2024-03-06T12:27:06;97669.00;;;16.40
80496;BMP180;69819;48.798;11.770;2024-03-06T12:29:33;97666.00;;;16.50
80496;BMP180;69819;48.798;11.770;2024-03-06T12:32:01;97656.00;;;16.50
80496;BMP180;69819;48.798;11.770;2024-03-06T12:34:28;97659.00;;;16.60
80496;BMP180;69819;48.798;11.770;2024-03-06T12:36:55;97669.00;;;16.50
80496;BMP180;69819;48.798;11.770;2024-03-06T12:39:23;97665.00;;;16.40
80496;BMP180;69819;48.798;11.770;2024-03-06T12:41:52;97654.00;;;16.40
80496;BMP180;69819;48.798;11.770;2024-03-06T12:44:22;97667.00;;;16.30
80496;BMP180;69819;48.798;11.770;2024-03-06T12:46:47;97632.00;;;16.30
80496;BMP180;69819;48.798;11.770;2024-03-06T12:49:14;97638.00;;;16.20
80496;BMP180;69819;48.798;11.770;2024-03-06T12:51:40;97658.00;;;16.20
80496;BMP180;69819;48.798;11.770;2024-03-06T12:54:06;97648.00;;;16.10
80496;BMP180;69819;48.798;11.770;2024-03-06T12:56:34;97653.00;;;16.00
80496;BMP180;69819;48.798;11.770;2024-03-06T12:58:59;97657.00;;;15.90
80496;BMP180;69819;48.798;11.770;2024-03-06T13:01:25;97659.00;;;15.80
80496;BMP180;69819;48.798;11.770;2024-03-06T13:03:51;97636.00;;;15.70
80496;BMP180;69819;48.798;11.770;2024-03-06T13:06:17;97653.00;;;15.60
80496;BMP180;69819;48.798;11.770;2024-03-06T13:08:43;97647.00;;;15.50
80496;BMP180;69819;48.798;11.770;2024-03-06T13:11:08;97646.00;;;15.40
80496;BMP180;69819;48.798;11.770;2024-03-06T13:13:35;97646.00;;;15.30
80496;BMP180;69819;48.798;11.770;2024-03-06T13:16:01;97654.00;;;15.10
80496;BMP180;69819;48.798;11.770;2024-03-06T13:18:27;97656.00;;;15.00
80496;BMP180;69819;48.798;11.770;2024-03-06T13:20:52;97644.00;;;14.90
80496;BMP180;69819;48.798;11.770;2024-03-06T13:23:19;97655.00;;;14.70
80496;BMP180;69819;48.798;11.770;2024-03-06T13:25:45;97644.00;;;14.70
80496;BMP180;69819;48.798;11.770;2024-03-06T13:28:12;97653.00;;;14.60
80496;BMP180;69819;48.798;11.770;2024-03-06T13:30:38;97630.00;;;14.40
80496;BMP180;69819;48.798;11.770;2024-03-06T13:33:05;97645.00;;;14.40
80496;BMP180;69819;48.798;11.770;2024-03-06T13:35:31;97631.00;;;14.40
80496;BMP180;69819;48.798;11.770;2024-03-06T13:37:57;97644.00;;;14.30
80496;BMP180;69819;48.798;11.770;2024-03-06T13:40:23;97637.00;;;14.20
80496;BMP180;69819;48.798;11.770;2024-03-06T13:42:48;97656.00;;;14.20
80496;BMP180;69819;48.798;11.770;2024-03-06T13:45:14;97648.00;;;14.10
80496;BMP180;69819;48.798;11.770;2024-03-06T13:47:42;97659.00;;;14.10
80496;BMP180;69819;48.798;11.770;2024-03-06T13:50:11;97655.00;;;14.10
80496;BMP180;69819;48.798;11.770;2024-03-06T13:52:38;97624.00;;;14.00
80496;BMP180;69819;48.798;11.770;2024-03-06T13:55:04;97650.00;;;14.00
80496;BMP180;69819;48.798;11.770;2024-03-06T13:57:34;97604.00;;;14.00
80496;BMP180;69819;48.798;11.770;2024-03-06T14:00:10;97635.00;;;14.00
80496;BMP180;69819;48.798;11.770;2024-03-06T14:02:43;97644.00;;;14.00
80496;BMP180;69819;48.798;11.770;2024-03-06T14:05:11;97631.00;;;14.00
80496;BMP180;69819;48.798;11.770;2024-03-06T14:07:38;97656.00;;;14.00
80496;BMP180;69819;48.798;11.770;2024-03-06T14:10:07;97610.00;;;14.00
80496;BMP180;69819;48.798;11.770;2024-03-06T14:12:34;97666.00;;;14.10
80496;BMP180;69819;48.798;11.770;2024-03-06T14:15:01;97628.00;;;14.10
80496;BMP180;69819;48.798;11.770;2024-03-06T14:17:27;97641.00;;;14.10
80496;BMP180;69819;48.798;11.770;2024-03-06T14:19:53;97651.00;;;14.10